Time;durP1;ratioP1;P1;durP2;ratioP2;P2;SDS_P1;SDS_P2;PMS_P1;PMS_P2;Temp;Humidity;BMP_temperature;BMP_pressure;BME280_temperature;BME280_humidity;BME280_pressure;Samples;Min_cycle;Max_cycle;Signal;HPM_P1;HPM_P2
2022/02/19 00:00:23;;;;;;;13.50;1.65;;;6.20;99.20;;;;;;5023321;28;20504;-83
2022/02/19 00:02:49;;;;;;;11.65;0.85;;;6.10;99.50;;;;;;5026510;28;20044;-84
2022/02/19 00:05:14;;;;;;;15.40;1.70;;;6.10;99.60;;;;;;5020889;28;20033;-85
2022/02/19 00:07:40;;;;;;;8.32;0.95;;;6.10;99.80;;;;;;5020073;28;20014;-85
2022/02/19 00:10:06;;;;;;;12.00;0.77;;;6.10;99.90;;;;;;5025637;28;20030;-85
2022/02/19 00:12:32;;;;;;;8.48;0.82;;;6.10;99.90;;;;;;5019371;28;20021;-83
2022/02/19 00:14:57;;;;;;;10.82;1.17;;;6.00;99.90;;;;;;5025753;28;20382;-84
2022/02/19 00:17:23;;;;;;;12.25;0.90;;;6.00;99.90;;;;;;5017566;28;20046;-84
2022/02/19 00:19:50;;;;;;;11.55;1.42;;;6.00;99.90;;;;;;5026096;28;20030;-85
2022/02/19 00:22:16;;;;;;;9.45;0.70;;;6.00;99.90;;;;;;5027665;28;20021;-85
2022/02/19 00:24:41;;;;;;;9.82;0.70;;;6.00;99.90;;;;;;5024091;28;20417;-85
2022/02/19 00:27:07;;;;;;;10.93;1.05;;;6.00;99.90;;;;;;5026570;28;20030;-85
2022/02/19 00:29:33;;;;;;;15.45;1.17;;;6.00;99.90;;;;;;5014169;28;20109;-86
2022/02/19 00:31:58;;;;;;;10.57;1.92;;;5.90;99.90;;;;;;5027220;28;20430;-86
2022/02/19 00:34:24;;;;;;;11.18;0.95;;;6.00;99.90;;;;;;5028230;28;20030;-85
2022/02/19 00:36:49;;;;;;;8.05;0.93;;;6.00;99.90;;;;;;5027499;28;20033;-85
2022/02/19 00:39:15;;;;;;;8.85;0.85;;;5.90;99.90;;;;;;5031178;28;20036;-86
2022/02/19 00:41:41;;;;;;;9.70;0.90;;;5.90;99.90;;;;;;5022649;28;20029;-85
2022/02/19 00:44:07;;;;;;;11.75;1.05;;;5.90;99.90;;;;;;5022812;28;20022;-85
2022/02/19 00:46:36;;;;;;;15.05;1.02;;;5.90;99.90;;;;;;5024655;28;20068;-84
2022/02/19 00:49:03;;;;;;;10.27;0.68;;;5.90;99.90;;;;;;5022467;28;20032;-84
2022/02/19 00:51:29;;;;;;;6.22;0.88;;;5.80;99.90;;;;;;5023019;28;20036;-86
2022/02/19 00:53:55;;;;;;;10.57;0.80;;;5.80;99.90;;;;;;5025056;28;20583;-83
2022/02/19 00:56:21;;;;;;;9.85;0.68;;;5.80;99.90;;;;;;5021648;28;20071;-85
2022/02/19 00:58:46;;;;;;;9.75;1.25;;;5.80;99.90;;;;;;5013009;28;20052;-85
2022/02/19 01:01:12;;;;;;;12.32;0.77;;;5.80;99.90;;;;;;5022309;28;20079;-84
2022/02/19 01:03:37;;;;;;;10.98;0.95;;;5.80;99.90;;;;;;5022416;28;20501;-84
2022/02/19 01:06:03;;;;;;;9.95;1.13;;;5.90;99.90;;;;;;5032016;28;20034;-85
2022/02/19 01:08:29;;;;;;;14.70;0.98;;;5.90;99.90;;;;;;5027670;28;20025;-85
2022/02/19 01:10:54;;;;;;;8.60;0.80;;;5.90;99.90;;;;;;5028055;28;20049;-84
2022/02/19 01:13:20;;;;;;;9.45;0.90;;;5.90;99.90;;;;;;5019220;28;20746;-86
2022/02/19 01:15:45;;;;;;;11.10;1.00;;;6.00;99.90;;;;;;5028511;28;20129;-85
2022/02/19 01:18:11;;;;;;;13.25;1.00;;;6.00;99.90;;;;;;5031018;28;20061;-84
2022/02/19 01:20:41;;;;;;;13.18;0.80;;;6.00;99.90;;;;;;5027164;28;20037;-85
2022/02/19 01:23:07;;;;;;;12.45;0.85;;;6.00;99.90;;;;;;5027126;28;20034;-84
2022/02/19 01:25:33;;;;;;;13.82;1.70;;;6.00;99.90;;;;;;5022722;28;20026;-85
2022/02/19 01:27:58;;;;;;;13.82;1.02;;;6.00;99.90;;;;;;5026484;28;20032;-85
2022/02/19 01:30:24;;;;;;;9.32;0.95;;;5.90;99.90;;;;;;5025882;28;20033;-85
2022/02/19 01:32:49;;;;;;;13.25;1.00;;;6.00;99.90;;;;;;5021625;28;20409;-84
2022/02/19 01:35:15;;;;;;;12.52;0.90;;;5.90;99.90;;;;;;5025823;28;20711;-85
2022/02/19 01:37:40;;;;;;;11.32;1.63;;;6.00;99.90;;;;;;5032142;28;20037;-85
2022/02/19 01:40:06;;;;;;;12.68;0.77;;;5.90;99.90;;;;;;5032067;28;20025;-86
2022/02/19 01:42:32;;;;;;;14.50;1.33;;;5.90;99.90;;;;;;5029561;28;20022;-85
2022/02/19 01:44:57;;;;;;;11.93;1.10;;;5.90;99.90;;;;;;5023943;28;20026;-85
2022/02/19 01:47:23;;;;;;;14.00;1.05;;;5.90;99.90;;;;;;5025318;28;20073;-84
2022/02/19 01:49:49;;;;;;;11.10;0.73;;;5.90;99.90;;;;;;5023638;28;20391;-85
2022/02/19 01:52:17;;;;;;;10.00;1.33;;;5.90;99.90;;;;;;5019007;28;20591;-86
2022/02/19 01:54:43;;;;;;;8.60;1.00;;;5.90;99.90;;;;;;5018336;28;20038;-85
2022/02/19 01:57:09;;;;;;;7.90;0.57;;;5.90;99.90;;;;;;5018558;28;20105;-85
2022/02/19 01:59:35;;;;;;;12.80;0.88;;;5.90;99.90;;;;;;5013710;28;20053;-85
2022/02/19 02:02:01;;;;;;;6.65;0.63;;;5.90;99.90;;;;;;5026637;28;20501;-84
2022/02/19 02:04:27;;;;;;;6.20;0.50;;;5.90;99.90;;;;;;5027836;28;20096;-85
2022/02/19 02:06:53;;;;;;;9.40;0.57;;;5.90;99.90;;;;;;5022730;28;20048;-84
2022/02/19 02:09:19;;;;;;;17.38;1.02;;;5.90;99.90;;;;;;5027958;28;20032;-86
2022/02/19 02:11:45;;;;;;;10.77;0.50;;;5.90;99.90;;;;;;5016604;28;20040;-84
2022/02/19 02:14:11;;;;;;;7.82;0.63;;;5.90;99.90;;;;;;5013035;28;20030;-84
2022/02/19 02:16:41;;;;;;;8.10;0.50;;;5.90;99.90;;;;;;5021780;28;20594;-84
2022/02/19 02:19:08;;;;;;;12.10;0.73;;;5.90;99.90;;;;;;5022505;28;20030;-84
2022/02/19 02:21:34;;;;;;;10.05;0.85;;;5.90;99.90;;;;;;5028336;28;20139;-85
2022/02/19 02:24:00;;;;;;;9.13;0.82;;;5.90;99.90;;;;;;5028516;28;20022;-85
2022/02/19 02:26:27;;;;;;;8.77;1.02;;;5.90;99.90;;;;;;5022790;28;20091;-85
2022/02/19 02:28:53;;;;;;;11.20;1.10;;;5.90;99.90;;;;;;5021066;28;20030;-85
2022/02/19 02:31:18;;;;;;;9.13;0.60;;;5.90;99.90;;;;;;5018848;28;20097;-86
2022/02/19 02:33:50;;;;;;;13.63;0.88;;;5.90;99.90;;;;;;5017948;28;20026;-85
2022/02/19 02:36:16;;;;;;;9.37;1.10;;;5.90;99.90;;;;;;5029333;28;20124;-86
2022/02/19 02:38:42;;;;;;;11.93;1.17;;;5.90;99.90;;;;;;5028793;28;20036;-85
2022/02/19 02:41:08;;;;;;;8.07;0.63;;;5.90;99.90;;;;;;5026902;28;20096;-84
2022/02/19 02:43:33;;;;;;;10.82;1.23;;;5.90;99.90;;;;;;5020619;28;20029;-86
2022/02/19 02:45:59;;;;;;;13.90;0.85;;;5.90;99.90;;;;;;5032382;28;20030;-85
2022/02/19 02:48:25;;;;;;;10.10;0.60;;;5.90;99.90;;;;;;5030549;28;20025;-85
2022/02/19 02:50:52;;;;;;;10.27;1.13;;;5.90;99.90;;;;;;5026313;28;20025;-85
2022/02/19 02:53:17;;;;;;;11.90;1.17;;;5.90;99.90;;;;;;5020383;28;20076;-85
2022/02/19 02:55:43;;;;;;;13.10;0.80;;;5.90;99.90;;;;;;5015508;28;20042;-84
2022/02/19 02:58:08;;;;;;;7.65;0.45;;;5.90;99.90;;;;;;5024124;28;20021;-84
2022/02/19 03:00:34;;;;;;;5.22;0.40;;;5.90;99.90;;;;;;5023063;28;20033;-85
2022/02/19 03:02:59;;;;;;;9.63;0.50;;;5.80;99.90;;;;;;5024470;28;20026;-85
2022/02/19 03:05:25;;;;;;;11.10;0.55;;;5.90;99.90;;;;;;5027516;28;20030;-85
2022/02/19 03:07:51;;;;;;;8.18;0.50;;;5.90;99.90;;;;;;5025873;28;20389;-85
2022/02/19 03:10:18;;;;;;;12.30;0.70;;;5.90;99.80;;;;;;5022588;28;20045;-85
2022/02/19 03:12:47;;;;;;;12.68;0.82;;;5.90;99.50;;;;;;5031357;28;20081;-84
2022/02/19 03:15:18;;;;;;;9.65;0.52;;;5.90;99.40;;;;;;5023721;28;20187;-85
2022/02/19 03:17:48;;;;;;;10.63;0.60;;;5.90;99.50;;;;;;5020505;28;20058;-84
2022/02/19 03:20:16;;;;;;;10.35;0.70;;;6.00;99.00;;;;;;5027575;28;20052;-85
2022/02/19 03:22:44;;;;;;;7.72;0.70;;;5.90;99.10;;;;;;5030909;28;20460;-85
2022/02/19 03:25:10;;;;;;;9.40;0.75;;;5.90;99.30;;;;;;5022771;28;20108;-85
2022/02/19 03:27:36;;;;;;;12.32;0.75;;;5.90;99.20;;;;;;5026280;28;20133;-86
2022/02/19 03:30:01;;;;;;;7.68;0.73;;;5.90;98.90;;;;;;5026274;28;20125;-86
2022/02/19 03:32:27;;;;;;;4.78;0.43;;;5.90;99.10;;;;;;5023412;28;20021;-86
2022/02/19 03:34:52;;;;;;;8.35;0.60;;;6.00;99.10;;;;;;5033103;28;20401;-86
2022/02/19 03:37:18;;;;;;;12.95;0.70;;;5.90;99.10;;;;;;5015442;28;20117;-85
2022/02/19 03:39:43;;;;;;;7.82;0.60;;;5.90;98.40;;;;;;5024996;28;20040;-86
2022/02/19 03:42:09;;;;;;;11.35;0.77;;;6.00;98.30;;;;;;5026010;28;20473;-86
2022/02/19 03:44:35;;;;;;;10.07;0.77;;;6.00;98.40;;;;;;5026193;28;20025;-86
2022/02/19 03:47:00;;;;;;;8.63;0.80;;;6.00;98.70;;;;;;5031766;28;20034;-85
2022/02/19 03:49:26;;;;;;;13.02;1.30;;;5.90;98.80;;;;;;5024712;28;20032;-87
2022/02/19 03:51:51;;;;;;;10.13;0.65;;;5.90;98.90;;;;;;5030982;28;20037;-86
2022/02/19 03:54:17;;;;;;;13.48;1.45;;;6.00;98.90;;;;;;5018023;28;20034;-86
2022/02/19 03:56:45;;;;;;;13.40;1.08;;;5.90;99.00;;;;;;5021477;28;20055;-85
2022/02/19 03:59:14;;;;;;;8.57;0.57;;;5.90;99.30;;;;;;5022979;28;20069;-86
2022/02/19 04:01:41;;;;;;;9.88;0.80;;;5.90;99.70;;;;;;5031272;28;20025;-86
2022/02/19 04:04:07;;;;;;;14.20;1.60;;;5.90;99.90;;;;;;5021793;28;20031;-86
2022/02/19 04:06:33;;;;;;;10.48;0.75;;;5.90;99.90;;;;;;5023724;28;20030;-85
2022/02/19 04:08:58;;;;;;;16.90;1.58;;;5.90;99.90;;;;;;5016757;28;20045;-85
2022/02/19 04:11:24;;;;;;;14.65;1.02;;;5.90;99.90;;;;;;5026933;28;20350;-87
2022/02/19 04:13:50;;;;;;;16.48;0.90;;;5.80;99.90;;;;;;5025054;28;20025;-86
2022/02/19 04:16:15;;;;;;;13.02;0.85;;;5.80;99.90;;;;;;5030618;28;20045;-86
2022/02/19 04:18:41;;;;;;;7.93;1.40;;;5.80;99.90;;;;;;5021975;28;20030;-87
2022/02/19 04:21:07;;;;;;;20.80;1.20;;;5.80;99.90;;;;;;5027710;28;20030;-87
2022/02/19 04:23:33;;;;;;;18.13;1.10;;;5.80;99.90;;;;;;5022436;28;20061;-86
2022/02/19 04:25:59;;;;;;;7.22;1.00;;;5.80;99.90;;;;;;5021969;28;20052;-85
2022/02/19 04:28:26;;;;;;;10.48;0.80;;;5.80;99.90;;;;;;5020130;28;20053;-86
2022/02/19 04:30:53;;;;;;;12.10;1.27;;;5.70;99.90;;;;;;5019071;28;20041;-86
2022/02/19 04:33:20;;;;;;;11.38;0.70;;;5.70;99.90;;;;;;5031023;28;20030;-86
2022/02/19 04:35:45;;;;;;;17.27;1.45;;;5.70;99.90;;;;;;5030079;28;20079;-87
2022/02/19 04:38:15;;;;;;;16.15;0.93;;;5.70;99.90;;;;;;5022917;28;20101;-87
2022/02/19 04:40:42;;;;;;;17.48;1.45;;;5.60;99.90;;;;;;5030509;28;20107;-85
2022/02/19 04:43:08;;;;;;;9.45;1.08;;;5.50;99.90;;;;;;5031337;28;20152;-86
2022/02/19 04:45:34;;;;;;;17.48;1.45;;;5.50;99.90;;;;;;5026981;28;20049;-86
2022/02/19 04:48:00;;;;;;;11.48;0.82;;;5.50;99.90;;;;;;5029275;28;20124;-87
2022/02/19 04:50:26;;;;;;;10.13;0.95;;;5.50;99.90;;;;;;5025169;28;20029;-85
2022/02/19 04:52:51;;;;;;;21.27;2.17;;;5.50;99.90;;;;;;5023135;28;20040;-87
2022/02/19 04:55:17;;;;;;;13.38;2.58;;;5.50;99.90;;;;;;5015779;28;20033;-86
2022/02/19 04:57:43;;;;;;;9.35;0.82;;;5.50;99.90;;;;;;5020544;28;20021;-86
2022/02/19 05:00:11;;;;;;;12.20;0.82;;;5.40;99.90;;;;;;5021999;28;20030;-86
2022/02/19 05:02:37;;;;;;;7.25;0.60;;;5.40;99.90;;;;;;5029707;28;20022;-87
2022/02/19 05:05:03;;;;;;;12.80;1.35;;;5.40;99.90;;;;;;5024022;28;20022;-87
2022/02/19 05:07:28;;;;;;;9.40;0.77;;;5.30;99.90;;;;;;5019185;28;20030;-87
2022/02/19 05:09:54;;;;;;;16.08;1.13;;;5.20;99.90;;;;;;5021844;28;20033;-88
2022/02/19 05:12:19;;;;;;;12.48;0.80;;;5.20;99.90;;;;;;5020984;28;20053;-86
2022/02/19 05:14:45;;;;;;;11.98;0.90;;;5.20;99.90;;;;;;5030034;28;20052;-86
2022/02/19 05:17:11;;;;;;;14.70;0.80;;;4.90;99.90;;;;;;5021111;28;20045;-88
2022/02/19 05:19:36;;;;;;;11.48;0.73;;;4.60;99.90;;;;;;5030531;28;20818;-85
2022/02/19 05:22:02;;;;;;;7.93;1.10;;;4.40;99.90;;;;;;5022962;28;20055;-86
2022/02/19 05:24:28;;;;;;;8.50;0.80;;;4.40;99.90;;;;;;5018596;28;20079;-87
2022/02/19 05:26:53;;;;;;;11.63;0.63;;;4.30;99.90;;;;;;5024195;28;20037;-87
2022/02/19 05:29:19;;;;;;;8.77;0.60;;;4.40;99.90;;;;;;5014108;28;20026;-86
2022/02/19 05:31:44;;;;;;;14.50;1.55;;;4.50;99.90;;;;;;5027302;28;20034;-87
2022/02/19 05:34:10;;;;;;;14.68;1.15;;;4.70;99.90;;;;;;5024597;28;20029;-86
2022/02/19 05:36:35;;;;;;;14.25;1.15;;;4.80;99.90;;;;;;5013589;28;20065;-86
2022/02/19 05:39:02;;;;;;;9.32;0.70;;;4.90;99.90;;;;;;5017528;28;20105;-87
2022/02/19 05:41:28;;;;;;;9.10;0.85;;;4.90;99.90;;;;;;5026689;28;20018;-88
2022/02/19 05:43:54;;;;;;;13.68;1.02;;;4.90;99.90;;;;;;5029810;28;20432;-86
2022/02/19 05:46:20;;;;;;;11.50;0.63;;;5.00;99.90;;;;;;5024811;28;20029;-87
2022/02/19 05:48:45;;;;;;;14.32;0.60;;;5.00;99.90;;;;;;5024026;28;20030;-87
2022/02/19 05:51:11;;;;;;;9.98;0.73;;;5.10;99.90;;;;;;5024646;28;20036;-86
2022/02/19 05:53:36;;;;;;;11.25;0.98;;;5.10;99.90;;;;;;5029522;28;20086;-87
2022/02/19 05:56:02;;;;;;;12.48;1.10;;;5.10;99.90;;;;;;5019011;28;20410;-87
2022/02/19 05:58:28;;;;;;;18.25;1.00;;;5.20;99.90;;;;;;5028911;28;20505;-87
2022/02/19 06:00:53;;;;;;;18.83;1.90;;;5.20;99.90;;;;;;5014463;28;20513;-85
2022/02/19 06:03:19;;;;;;;9.18;0.65;;;5.20;99.90;;;;;;5029944;28;20057;-86
2022/02/19 06:05:44;;;;;;;10.93;1.00;;;5.20;99.90;;;;;;5025912;28;20138;-87
2022/02/19 06:08:10;;;;;;;9.20;1.45;;;5.20;99.90;;;;;;5022726;28;20048;-87
2022/02/19 06:10:35;;;;;;;10.90;0.63;;;5.20;99.90;;;;;;5029332;28;20033;-86
2022/02/19 06:13:02;;;;;;;6.57;0.65;;;5.20;99.90;;;;;;5030153;28;20036;-87
2022/02/19 06:15:27;;;;;;;11.63;1.15;;;5.20;99.90;;;;;;5019696;28;20034;-86
2022/02/19 06:17:53;;;;;;;18.40;2.38;;;5.20;99.90;;;;;;5036519;22;20069;-85
2022/02/19 06:20:18;;;;;;;10.20;0.95;;;5.20;99.90;;;;;;5029205;28;20040;-89
2022/02/19 06:22:44;;;;;;;9.60;1.05;;;5.20;99.90;;;;;;5035114;28;20029;-88
2022/02/19 06:25:10;;;;;;;10.82;0.68;;;5.20;99.90;;;;;;5035586;28;20396;-87
2022/02/19 06:27:46;;;;;;;11.40;0.60;;;5.20;99.90;;;;;;5017512;28;20017;-87
2022/02/19 06:30:15;;;;;;;15.32;1.75;;;5.20;99.90;;;;;;5029606;28;20026;-87
2022/02/19 06:32:42;;;;;;;8.93;0.70;;;5.20;99.90;;;;;;5035390;28;20052;-87
2022/02/19 06:35:08;;;;;;;15.23;1.25;;;5.20;99.90;;;;;;5015873;28;20575;-88
2022/02/19 06:37:45;;;;;;;13.30;0.60;;;5.20;99.90;;;;;;5035208;28;20034;-88
2022/02/19 06:40:14;;;;;;;6.78;0.93;;;5.30;99.90;;;;;;5035171;28;20026;-86
2022/02/19 06:42:41;;;;;;;14.65;1.15;;;5.20;99.90;;;;;;5034406;28;20047;-87
2022/02/19 06:45:08;;;;;;;10.55;0.98;;;5.20;99.90;;;;;;5035545;28;20040;-87
2022/02/19 06:47:35;;;;;;;16.85;1.10;;;5.20;99.90;;;;;;5033233;28;20025;-87
2022/02/19 06:50:06;;;;;;;6.47;1.83;;;5.20;99.90;;;;;;5035864;28;20029;-87
2022/02/19 06:52:32;;;;;;;12.45;0.98;;;5.20;99.90;;;;;;5034112;28;20435;-87
2022/02/19 06:54:58;;;;;;;8.65;0.60;;;5.20;99.90;;;;;;5031968;28;20037;-88
2022/02/19 06:57:23;;;;;;;9.85;1.08;;;5.20;99.90;;;;;;5035786;28;20026;-87
2022/02/19 06:59:50;;;;;;;9.75;0.85;;;5.20;99.90;;;;;;5032988;28;20385;-88
2022/02/19 07:02:16;;;;;;;10.85;0.80;;;5.20;99.90;;;;;;5031530;28;20034;-87
2022/02/19 07:04:42;;;;;;;14.75;1.30;;;5.20;99.90;;;;;;5035843;28;20048;-87
2022/02/19 07:07:07;;;;;;;11.63;0.90;;;5.20;99.90;;;;;;5036135;28;20022;-86
2022/02/19 07:09:33;;;;;;;15.38;0.60;;;5.20;99.90;;;;;;5035889;28;20029;-88
2022/02/19 07:11:58;;;;;;;8.73;0.70;;;5.20;99.90;;;;;;5034005;28;20487;-87
2022/02/19 07:14:25;;;;;;;16.33;1.10;;;5.20;99.90;;;;;;5032552;28;20048;-88
2022/02/19 07:16:51;;;;;;;18.25;1.30;;;5.20;99.90;;;;;;5033609;28;20042;-87
2022/02/19 07:19:17;;;;;;;6.60;0.93;;;5.20;99.90;;;;;;5033883;28;20045;-88
2022/02/19 07:21:44;;;;;;;10.10;0.88;;;5.20;99.90;;;;;;5034833;28;20021;-87
2022/02/19 07:24:11;;;;;;;13.13;0.80;;;5.20;99.90;;;;;;5034417;28;20026;-87
2022/02/19 07:26:37;;;;;;;14.85;1.13;;;5.20;99.90;;;;;;5034640;28;20017;-87
2022/02/19 07:29:03;;;;;;;10.05;1.20;;;5.20;99.90;;;;;;5033588;28;20033;-87
2022/02/19 07:31:28;;;;;;;11.63;1.02;;;5.20;99.90;;;;;;5034452;28;20018;-87
2022/02/19 07:33:54;;;;;;;13.30;0.93;;;5.20;99.90;;;;;;5034011;28;20025;-87
2022/02/19 07:36:19;;;;;;;18.08;1.13;;;5.30;99.90;;;;;;5032058;28;20046;-88
2022/02/19 07:38:45;;;;;;;10.43;0.68;;;5.20;99.90;;;;;;5032387;28;20029;-88
2022/02/19 07:41:10;;;;;;;9.35;1.08;;;5.20;99.90;;;;;;5034722;28;20030;-90
2022/02/19 07:43:36;;;;;;;10.43;0.80;;;5.20;99.90;;;;;;5034619;28;20044;-91
2022/02/19 07:46:02;;;;;;;11.07;0.98;;;5.20;99.90;;;;;;5035101;28;20025;-90
2022/02/19 07:48:28;;;;;;;14.88;0.85;;;5.30;99.90;;;;;;5014776;28;20625;-88
2022/02/19 07:59:06;;;;;;;14.00;0.85;;;5.30;99.90;;;;;;5033717;28;20028;-84
2022/02/19 08:01:32;;;;;;;12.60;1.02;;;5.30;99.90;;;;;;5033404;28;20061;-87
2022/02/19 08:03:57;;;;;;;10.77;1.10;;;5.30;99.90;;;;;;5033937;28;20542;-89
2022/02/19 08:06:23;;;;;;;11.43;1.40;;;5.30;99.90;;;;;;5032286;28;20042;-89
2022/02/19 08:08:48;;;;;;;12.80;1.35;;;5.40;99.90;;;;;;5016411;28;20079;-89
2022/02/19 08:11:14;;;;;;;10.75;0.80;;;5.40;99.90;;;;;;5033020;28;20392;-89
2022/02/19 08:13:40;;;;;;;8.77;1.08;;;5.40;99.90;;;;;;5035323;28;20065;-89
2022/02/19 08:16:08;;;;;;;11.27;1.00;;;5.30;99.90;;;;;;5034504;28;20087;-88
2022/02/19 08:18:35;;;;;;;11.93;1.17;;;5.30;99.90;;;;;;5029424;28;20073;-87
2022/02/19 08:21:01;;;;;;;7.22;0.50;;;5.20;99.90;;;;;;5031787;28;20086;-86
2022/02/19 08:23:27;;;;;;;11.18;0.70;;;5.30;99.90;;;;;;5016620;28;20021;-86
2022/02/19 08:25:52;;;;;;;12.35;1.52;;;5.30;99.90;;;;;;5018726;28;20026;-86
2022/02/19 08:28:18;;;;;;;13.20;0.75;;;5.40;99.90;;;;;;5033009;28;20025;-86
2022/02/19 08:30:46;;;;;;;9.38;0.60;;;5.50;99.90;;;;;;5034616;28;20029;-87
2022/02/19 08:33:13;;;;;;;14.05;0.90;;;5.50;99.90;;;;;;5033338;28;20026;-87
2022/02/19 08:35:40;;;;;;;8.68;0.80;;;5.60;99.90;;;;;;5026679;28;20033;-86
2022/02/19 08:38:07;;;;;;;16.00;1.27;;;5.70;99.90;;;;;;5032318;28;20022;-86
2022/02/19 08:40:33;;;;;;;9.50;1.05;;;5.80;99.90;;;;;;5034375;28;20033;-86
2022/02/19 08:42:58;;;;;;;10.75;0.98;;;5.90;99.90;;;;;;5032379;28;20087;-87
2022/02/19 08:45:24;;;;;;;16.70;1.30;;;5.90;99.90;;;;;;5029119;28;20030;-86
2022/02/19 08:47:53;;;;;;;14.82;0.80;;;6.00;99.90;;;;;;5028201;28;20055;-86
2022/02/19 08:50:19;;;;;;;6.75;0.70;;;6.00;99.90;;;;;;5032887;28;20029;-86
2022/02/19 08:52:48;;;;;;;11.88;1.00;;;6.10;99.90;;;;;;5030255;28;20576;-86
2022/02/19 08:55:16;;;;;;;14.48;0.77;;;6.20;99.90;;;;;;5033068;28;20067;-86
2022/02/19 08:57:41;;;;;;;10.05;0.80;;;6.30;99.90;;;;;;5015631;28;20374;-87
2022/02/19 09:00:10;;;;;;;11.57;0.70;;;6.50;99.90;;;;;;5028530;28;20025;-87
2022/02/19 09:02:37;;;;;;;16.48;1.65;;;6.60;99.90;;;;;;5033086;28;20021;-86
2022/02/19 09:05:03;;;;;;;9.80;0.90;;;6.70;99.90;;;;;;5028048;28;20474;-86
2022/02/19 09:07:32;;;;;;;13.95;0.98;;;6.70;99.90;;;;;;5036365;28;20048;-85
2022/02/19 09:09:58;;;;;;;9.38;1.10;;;6.70;99.90;;;;;;5029394;28;20025;-86
2022/02/19 09:12:23;;;;;;;10.88;1.05;;;6.60;99.90;;;;;;5026779;28;20029;-86
2022/02/19 09:14:49;;;;;;;10.15;1.08;;;6.60;99.90;;;;;;5015441;28;20029;-86
2022/02/19 09:17:15;;;;;;;12.93;0.80;;;6.60;99.90;;;;;;5028071;28;20018;-86
2022/02/19 09:19:40;;;;;;;10.98;0.52;;;6.70;99.90;;;;;;5023920;28;20021;-86
2022/02/19 09:22:06;;;;;;;14.35;0.82;;;6.70;99.90;;;;;;5032561;28;20056;-86
2022/02/19 09:24:32;;;;;;;10.02;0.70;;;6.70;99.90;;;;;;5033020;28;20112;-87
2022/02/19 09:26:58;;;;;;;13.40;1.10;;;6.70;99.90;;;;;;5032886;28;20080;-86
2022/02/19 09:29:24;;;;;;;10.20;0.95;;;6.60;99.90;;;;;;5032830;28;20117;-86
2022/02/19 09:31:50;;;;;;;10.18;0.95;;;6.60;99.90;;;;;;5031632;28;20080;-87
2022/02/19 09:34:15;;;;;;;18.13;1.98;;;6.50;99.90;;;;;;5014376;28;20025;-86
2022/02/19 09:36:41;;;;;;;11.32;1.15;;;6.50;99.90;;;;;;5031991;28;20048;-85
2022/02/19 09:39:07;;;;;;;10.88;0.60;;;6.40;99.90;;;;;;5032413;28;20057;-85
2022/02/19 09:41:33;;;;;;;11.63;1.00;;;6.50;99.90;;;;;;5032399;28;20026;-86
2022/02/19 09:44:02;;;;;;;11.48;0.98;;;6.60;99.90;;;;;;5032629;28;20052;-86
2022/02/19 09:46:30;;;;;;;9.40;1.10;;;6.70;99.90;;;;;;5023520;28;20098;-87
2022/02/19 09:48:57;;;;;;;12.45;0.80;;;6.70;99.90;;;;;;5032831;28;20045;-86
2022/02/19 09:51:23;;;;;;;11.32;1.23;;;6.60;99.90;;;;;;5031788;28;20045;-86
2022/02/19 09:53:49;;;;;;;15.18;1.23;;;6.60;99.90;;;;;;5032441;28;20013;-85
2022/02/19 09:56:15;;;;;;;13.88;1.65;;;6.50;99.90;;;;;;5032517;28;20120;-86
2022/02/19 09:58:45;;;;;;;12.00;1.15;;;6.40;99.90;;;;;;5032424;28;20052;-85
2022/02/19 10:01:22;;;;;;;14.25;0.73;;;6.40;99.90;;;;;;5012252;28;20079;-85
2022/02/19 10:03:57;;;;;;;13.18;1.20;;;6.50;99.90;;;;;;5021200;28;20481;-86
2022/02/19 10:06:31;;;;;;;12.70;1.20;;;6.50;99.90;;;;;;5023993;28;20021;-85
2022/02/19 10:09:17;;;;;;;9.73;1.00;;;6.50;99.90;;;;;;5031770;28;20034;-86
2022/02/19 10:11:44;;;;;;;10.82;0.88;;;6.50;99.90;;;;;;5030389;28;20116;-87
2022/02/19 10:14:29;;;;;;;10.00;0.75;;;6.60;99.90;;;;;;5031579;28;20473;-86
2022/02/19 10:17:07;;;;;;;15.38;1.15;;;6.80;99.90;;;;;;5029785;28;20488;-87
2022/02/19 10:20:02;;;;;;;8.70;0.82;;;7.00;99.90;;;;;;5029405;28;20042;-86
2022/02/19 10:22:30;;;;;;;8.05;0.75;;;7.20;99.90;;;;;;5031303;28;20024;-85
2022/02/19 10:25:02;;;;;;;7.32;0.60;;;7.20;99.90;;;;;;5014838;28;20021;-86
2022/02/19 10:27:43;;;;;;;;;;;7.30;99.90;;;;;;5032488;28;20034;-86
2022/02/19 10:30:09;;;;;;;10.93;0.80;;;7.30;99.90;;;;;;5026454;28;20023;-86
2022/02/19 10:32:58;;;;;;;8.48;0.60;;;7.40;99.90;;;;;;5029668;28;20029;-86
2022/02/19 10:35:38;;;;;;;14.07;0.60;;;7.50;99.90;;;;;;5028280;28;21666;-85
2022/02/19 10:38:10;;;;;;;12.63;0.70;;;7.40;99.90;;;;;;5025538;28;20026;-85
2022/02/19 10:40:42;;;;;;;10.85;0.75;;;7.40;99.90;;;;;;5021694;28;20057;-85
2022/02/19 10:43:29;;;;;;;8.52;0.73;;;7.40;99.90;;;;;;5021564;28;20029;-85
2022/02/19 10:45:58;;;;;;;10.35;1.00;;;7.30;99.90;;;;;;5032413;28;20032;-84
2022/02/19 10:48:28;;;;;;;6.55;0.70;;;7.30;99.90;;;;;;5032711;28;20029;-84
2022/02/19 10:51:18;;;;;;;9.13;0.70;;;7.30;99.90;;;;;;5035075;28;20480;-84
2022/02/19 10:53:55;;;;;;;7.43;1.00;;;7.40;99.30;;;;;;5031449;28;20097;-84
2022/02/19 10:56:21;;;;;;;9.63;0.60;;;7.40;99.90;;;;;;5029514;28;20037;-84
2022/02/19 10:59:00;;;;;;;10.13;0.82;;;7.70;99.90;;;;;;5024762;28;20477;-83
2022/02/19 11:01:26;;;;;;;12.07;0.68;;;8.00;99.80;;;;;;5029694;28;20025;-84
2022/02/19 11:03:53;;;;;;;5.72;0.75;;;8.10;98.70;;;;;;5029473;28;20061;-84
2022/02/19 11:06:18;;;;;;;13.23;1.08;;;8.10;96.90;;;;;;5034433;28;20037;-84
2022/02/19 11:08:45;;;;;;;8.20;0.70;;;8.00;97.20;;;;;;5025742;28;20026;-84
2022/02/19 11:11:11;;;;;;;9.75;0.90;;;8.10;97.10;;;;;;5017116;28;20033;-85
2022/02/19 11:13:41;;;;;;;5.43;0.60;;;8.30;97.30;;;;;;5007278;28;20022;-85
2022/02/19 11:16:07;;;;;;;11.20;0.70;;;8.40;96.40;;;;;;5012780;28;20056;-84
2022/02/19 11:18:36;;;;;;;4.70;0.32;;;8.30;95.10;;;;;;5014117;28;20387;-85
2022/02/19 11:21:04;;;;;;;16.13;0.93;;;8.20;94.70;;;;;;5022782;28;20033;-81
2022/02/19 11:23:32;;;;;;;10.80;0.65;;;8.10;93.90;;;;;;5035971;28;20044;-84
2022/02/19 11:25:59;;;;;;;5.15;0.38;;;7.90;94.30;;;;;;5030938;28;20363;-85
2022/02/19 11:28:30;;;;;;;7.93;0.60;;;7.90;94.50;;;;;;5030619;28;20036;-84
2022/02/19 11:30:56;;;;;;;5.65;0.30;;;7.90;95.20;;;;;;5031888;28;20048;-84
2022/02/19 11:33:24;;;;;;;8.82;1.15;;;8.10;95.70;;;;;;5013481;28;20024;-85
2022/02/19 11:35:50;;;;;;;12.60;0.65;;;8.20;94.90;;;;;;5030194;28;20037;-85
2022/02/19 11:38:32;;;;;;;9.30;0.60;;;8.40;93.80;;;;;;5034532;28;20021;-84
2022/02/19 11:41:10;;;;;;;11.48;0.70;;;8.40;93.60;;;;;;5034023;28;20029;-85
2022/02/19 11:43:40;;;;;;;5.05;0.70;;;8.40;93.80;;;;;;5032980;28;20052;-85
2022/02/19 11:46:12;;;;;;;5.47;0.63;;;8.30;93.80;;;;;;5028272;28;20017;-86
2022/02/19 11:48:42;;;;;;;10.65;0.70;;;8.20;93.80;;;;;;5030969;28;20108;-86
2022/02/19 11:51:28;;;;;;;9.70;0.63;;;8.30;93.50;;;;;;5016585;28;20116;-85
2022/02/19 11:54:16;;;;;;;10.23;0.57;;;8.30;94.00;;;;;;5030844;28;20044;-84
2022/02/19 11:56:43;;;;;;;10.88;0.63;;;8.40;93.90;;;;;;5024176;28;20099;-85
2022/02/19 11:59:16;;;;;;;5.88;0.50;;;8.40;93.20;;;;;;5032903;28;20022;-86
2022/02/19 12:01:45;;;;;;;10.07;0.70;;;8.20;93.30;;;;;;5013776;28;20025;-86
2022/02/19 12:04:15;;;;;;;8.90;0.50;;;8.10;93.70;;;;;;5026455;28;20018;-86
2022/02/19 12:06:46;;;;;;;12.68;1.40;;;8.20;94.00;;;;;;5013812;28;20033;-85
2022/02/19 12:09:14;;;;;;;4.90;0.40;;;8.20;93.20;;;;;;5010724;28;20132;-85
2022/02/19 12:12:03;;;;;;;9.32;0.65;;;8.20;93.00;;;;;;5009801;28;20025;-85
2022/02/19 12:14:53;;;;;;;5.35;0.50;;;8.20;92.40;;;;;;5009040;28;20052;-85
2022/02/19 12:17:24;;;;;;;7.35;0.60;;;8.30;93.00;;;;;;5025637;28;20216;-86
2022/02/19 12:20:09;;;;;;;6.80;0.40;;;8.30;92.70;;;;;;4994005;28;20071;-85
2022/02/19 12:22:58;;;;;;;5.82;0.50;;;8.30;92.60;;;;;;5008170;28;20034;-86
2022/02/19 12:25:44;;;;;;;4.35;0.60;;;8.40;92.40;;;;;;4993544;28;20384;-84
2022/02/19 12:28:18;;;;;;;10.40;0.75;;;8.40;91.20;;;;;;5007390;28;20038;-85
2022/02/19 12:30:46;;;;;;;8.02;0.32;;;8.50;90.30;;;;;;4989509;28;20031;-85
2022/02/19 12:33:13;;;;;;;4.15;0.30;;;8.50;89.60;;;;;;4993413;28;20022;-85
2022/02/19 12:35:43;;;;;;;5.80;0.47;;;8.60;89.10;;;;;;4991118;28;20041;-85
2022/02/19 12:38:14;;;;;;;7.88;0.50;;;8.50;87.40;;;;;;4992272;28;20489;-84
2022/02/19 12:40:41;;;;;;;7.40;0.50;;;8.60;87.50;;;;;;4990361;28;20030;-85
2022/02/19 12:43:14;;;;;;;11.10;0.77;;;8.60;85.30;;;;;;4993902;28;20027;-85
2022/02/19 12:45:41;;;;;;;7.45;0.63;;;8.60;85.40;;;;;;4999643;28;20065;-85
2022/02/19 12:48:06;;;;;;;8.00;0.50;;;8.60;85.10;;;;;;4992477;28;20022;-81
2022/02/19 12:50:32;;;;;;;9.57;0.52;;;8.60;84.40;;;;;;4992430;28;20039;-83
2022/02/19 12:52:58;;;;;;;4.38;0.38;;;8.60;83.20;;;;;;4995455;28;20038;-85
2022/02/19 12:55:24;;;;;;;6.80;0.40;;;8.60;83.80;;;;;;4991511;28;20125;-84
2022/02/19 12:57:58;;;;;;;6.55;0.55;;;8.50;83.60;;;;;;4993203;28;20026;-84
2022/02/19 13:00:24;;;;;;;4.50;0.50;;;8.50;83.70;;;;;;4988628;28;20022;-84